createdAt,value
2018-12-03T00:01:31.868Z,11.47
2018-12-03T00:06:35.090Z,11.50
2018-12-03T00:11:38.357Z,11.58
2018-12-03T00:16:41.511Z,11.59
2018-12-03T00:21:44.664Z,11.65
2018-12-03T00:26:47.902Z,11.61
2018-12-03T00:31:51.150Z,11.64
2018-12-03T00:36:54.390Z,11.63
2018-12-03T00:41:57.571Z,11.58
2018-12-03T00:47:00.745Z,11.57
2018-12-03T00:52:03.901Z,11.49
2018-12-03T00:57:07.597Z,11.41
2018-12-03T01:02:16.465Z,11.39
2018-12-03T01:07:19.660Z,11.40
2018-12-03T01:12:22.818Z,11.45
2018-12-03T01:17:26.006Z,11.41
2018-12-03T01:22:29.141Z,11.46
2018-12-03T01:27:32.310Z,11.52
2018-12-03T01:32:35.453Z,11.63
2018-12-03T01:37:38.593Z,11.57
2018-12-03T01:42:41.828Z,11.54
2018-12-03T01:47:44.974Z,11.62
2018-12-03T01:52:48.137Z,11.63
2018-12-03T01:57:51.325Z,11.79
2018-12-03T02:02:54.501Z,11.66
2018-12-03T02:07:57.671Z,11.76
2018-12-03T02:13:00.808Z,11.60
2018-12-03T02:18:04.502Z,11.67
2018-12-03T02:23:07.676Z,11.61
2018-12-03T02:28:10.827Z,11.77
2018-12-03T02:33:13.946Z,11.62
2018-12-03T02:38:17.128Z,11.72
2018-12-03T02:43:20.272Z,11.73
2018-12-03T02:48:23.411Z,11.80
2018-12-03T02:53:26.639Z,11.84
2018-12-03T02:58:29.868Z,11.84
2018-12-03T03:03:32.983Z,11.81
2018-12-03T03:08:36.157Z,11.81
2018-12-03T03:13:39.390Z,11.83
2018-12-03T03:18:42.564Z,11.71
2018-12-03T03:23:45.717Z,11.82
2018-12-03T03:28:48.911Z,11.72
2018-12-03T03:33:52.201Z,11.90
2018-12-03T03:38:55.370Z,12.05
2018-12-03T03:43:58.512Z,11.82
2018-12-03T03:49:01.693Z,11.74
2018-12-03T03:54:05.298Z,11.72
2018-12-03T03:59:08.429Z,11.82
2018-12-03T04:04:11.569Z,11.74
2018-12-03T04:09:14.726Z,11.90
2018-12-03T04:14:17.864Z,11.91
2018-12-03T04:19:21.030Z,12.02
2018-12-03T04:24:24.165Z,12.08
2018-12-03T04:29:27.327Z,12.12
2018-12-03T04:34:30.464Z,12.17
2018-12-03T04:39:33.617Z,12.16
2018-12-03T04:44:36.756Z,12.00
2018-12-03T04:49:39.922Z,11.98
2018-12-03T04:54:43.102Z,11.88
2018-12-03T04:59:46.264Z,11.87
2018-12-03T05:04:49.421Z,11.81
2018-12-03T05:09:52.620Z,11.59
2018-12-03T05:14:55.759Z,11.68
2018-12-03T05:19:58.941Z,11.67
2018-12-03T05:25:02.105Z,11.76
2018-12-03T05:30:12.274Z,11.83
2018-12-03T05:35:17.813Z,11.75
2018-12-03T05:40:24.478Z,11.73
2018-12-03T05:45:27.661Z,11.87
2018-12-03T05:50:30.809Z,11.90
2018-12-03T05:55:33.976Z,11.95
2018-12-03T06:00:37.138Z,11.90
2018-12-03T06:05:40.324Z,11.95
2018-12-03T06:10:43.457Z,11.82
2018-12-03T06:15:46.648Z,11.85
2018-12-03T06:20:49.806Z,11.98
2018-12-03T06:25:53.092Z,11.87
2018-12-03T06:30:56.254Z,12.07
2018-12-03T06:35:59.449Z,12.09
2018-12-03T06:41:02.584Z,12.18
2018-12-03T06:46:06.019Z,12.09
2018-12-03T06:51:09.184Z,12.13
2018-12-03T06:56:12.381Z,12.21
2018-12-03T07:01:16.371Z,12.22
2018-12-03T07:06:19.606Z,12.14
2018-12-03T07:11:22.847Z,11.96
2018-12-03T07:16:26.013Z,11.97
2018-12-03T07:21:29.286Z,11.94
2018-12-03T07:26:32.716Z,11.96
2018-12-03T07:31:35.923Z,12.03
2018-12-03T07:36:39.119Z,12.13
2018-12-03T07:41:42.266Z,12.09
2018-12-03T07:46:45.478Z,12.09
2018-12-03T07:51:48.713Z,12.12
2018-12-03T07:56:51.950Z,12.09
2018-12-03T08:01:55.129Z,12.16
2018-12-03T08:06:58.289Z,12.22
2018-12-03T08:12:01.460Z,12.33
2018-12-03T08:17:04.795Z,12.39
2018-12-03T08:22:10.669Z,12.65
2018-12-03T08:27:13.859Z,12.48
2018-12-03T08:32:17.040Z,12.38
2018-12-03T08:37:20.218Z,12.27
2018-12-03T08:42:23.412Z,12.31
2018-12-03T08:47:26.623Z,12.37
2018-12-03T08:52:29.797Z,12.44
2018-12-03T08:57:32.993Z,12.65
2018-12-03T09:02:36.286Z,12.97
2018-12-03T09:07:40.617Z,13.16
2018-12-03T09:12:43.833Z,13.31
2018-12-03T09:17:47.086Z,13.35
2018-12-03T09:22:50.329Z,13.46
2018-12-03T09:27:53.509Z,13.67
2018-12-03T09:32:56.747Z,13.54
2018-12-03T09:37:59.974Z,13.61
2018-12-03T09:43:03.154Z,13.65
2018-12-03T09:48:06.624Z,13.82
2018-12-03T09:53:09.892Z,13.75
2018-12-03T09:58:21.949Z,13.70
2018-12-03T10:03:30.321Z,13.62
2018-12-03T10:08:33.545Z,13.51
2018-12-03T10:13:36.730Z,13.26
2018-12-03T10:18:39.965Z,13.02
2018-12-03T10:23:43.165Z,12.84
2018-12-03T10:28:46.347Z,12.73
2018-12-03T10:33:49.624Z,12.67
2018-12-03T10:38:52.815Z,12.70
2018-12-03T10:43:59.257Z,12.73
2018-12-03T10:49:07.318Z,12.84
2018-12-03T10:54:10.606Z,12.96
2018-12-03T10:59:13.862Z,13.11
2018-12-03T11:04:22.626Z,13.23
2018-12-03T11:09:32.951Z,13.37
2018-12-03T11:14:30.815Z,13.48
2018-12-03T11:19:34.058Z,13.78
2018-12-03T11:24:37.286Z,13.73
2018-12-03T11:29:41.161Z,14.00
2018-12-03T11:34:44.372Z,14.25
2018-12-03T11:39:55.449Z,14.31
2018-12-03T11:44:58.721Z,14.35
2018-12-03T11:50:01.949Z,14.37
2018-12-03T11:55:05.994Z,14.48
2018-12-03T12:00:11.956Z,14.41
2018-12-03T12:05:15.169Z,14.51
2018-12-03T12:10:18.412Z,14.52
2018-12-03T12:15:21.642Z,14.52
2018-12-03T12:20:24.865Z,14.48
2018-12-03T12:25:28.037Z,14.58
2018-12-03T12:30:31.189Z,14.56
2018-12-03T12:35:34.382Z,14.57
2018-12-03T12:40:37.604Z,14.51
2018-12-03T12:46:06.072Z,14.51
2018-12-03T12:51:09.375Z,14.46
2018-12-03T12:56:12.584Z,14.45
2018-12-03T13:01:15.745Z,14.45
2018-12-03T13:06:18.966Z,14.62
2018-12-03T13:11:22.181Z,14.69
2018-12-03T13:16:25.552Z,14.87
2018-12-03T13:21:28.747Z,14.82
2018-12-03T13:26:34.002Z,14.59
2018-12-03T13:31:37.238Z,14.56
2018-12-03T13:36:40.424Z,14.21
2018-12-03T13:41:43.672Z,13.97
2018-12-03T13:46:46.990Z,13.64
2018-12-03T13:51:50.220Z,13.31
2018-12-03T13:56:53.410Z,13.04
2018-12-03T14:01:56.647Z,12.78
2018-12-03T14:07:24.820Z,12.53
2018-12-03T14:12:43.899Z,12.38
2018-12-03T14:17:55.386Z,12.34
2018-12-03T14:23:03.818Z,12.30
2018-12-03T14:28:07.088Z,12.32
2018-12-03T14:33:10.316Z,12.26
2018-12-03T14:38:13.523Z,12.20
2018-12-03T14:43:16.801Z,12.22
2018-12-03T14:48:20.067Z,12.33
2018-12-03T14:53:23.268Z,12.18
2018-12-03T14:58:26.469Z,12.06
2018-12-03T15:03:29.690Z,12.13
2018-12-03T15:08:32.891Z,12.17
2018-12-03T15:13:36.138Z,12.14
2018-12-03T15:18:39.486Z,12.18
2018-12-03T15:23:42.730Z,12.07
2018-12-03T15:28:45.992Z,12.12
2018-12-03T15:33:49.344Z,12.14
2018-12-03T15:38:52.594Z,12.15
2018-12-03T15:43:55.893Z,12.17
2018-12-03T15:48:59.214Z,12.15
2018-12-03T15:54:02.542Z,12.13
2018-12-03T15:59:05.846Z,12.12
2018-12-03T16:04:09.047Z,12.16
2018-12-03T16:09:13.476Z,12.17
2018-12-03T16:14:16.775Z,12.11
2018-12-03T16:19:20.020Z,12.17
2018-12-03T16:24:23.299Z,12.13
2018-12-03T16:29:26.544Z,12.11
2018-12-03T16:34:29.882Z,12.07
2018-12-03T16:39:33.215Z,12.04
2018-12-03T16:44:36.494Z,12.10
2018-12-03T16:49:39.793Z,11.96
2018-12-03T16:54:43.008Z,12.05
2018-12-03T16:59:46.270Z,12.04
2018-12-03T17:04:49.682Z,12.03
2018-12-03T17:09:52.904Z,12.15
2018-12-03T17:14:56.151Z,12.03
2018-12-03T17:19:59.417Z,12.03
2018-12-03T17:25:04.592Z,12.06
2018-12-03T17:30:08.989Z,12.07
2018-12-03T17:35:12.262Z,12.14
2018-12-03T17:40:15.533Z,12.04
2018-12-03T17:45:18.873Z,12.06
2018-12-03T17:50:22.174Z,12.11
2018-12-03T17:55:25.404Z,12.01
2018-12-03T18:00:28.862Z,12.00
2018-12-03T18:05:32.149Z,11.98
2018-12-03T18:10:35.423Z,12.04
2018-12-03T18:15:38.771Z,12.13
2018-12-03T18:20:42.109Z,12.08
2018-12-03T18:25:45.518Z,11.94
2018-12-03T18:30:48.819Z,11.90
2018-12-03T18:35:52.211Z,11.89
2018-12-03T18:40:56.498Z,11.95
2018-12-03T18:45:59.852Z,11.92
2018-12-03T18:51:03.528Z,12.12
2018-12-03T18:56:06.917Z,12.06
2018-12-03T19:01:10.300Z,12.14
2018-12-03T19:06:13.611Z,12.10
2018-12-03T19:11:16.942Z,12.10
2018-12-03T19:16:20.960Z,12.05
2018-12-03T19:21:23.700Z,11.99
2018-12-03T19:26:27.119Z,12.03
2018-12-03T19:31:31.387Z,12.03
2018-12-03T19:36:33.956Z,11.89
2018-12-03T19:41:37.352Z,11.71
2018-12-03T19:46:40.779Z,11.49
2018-12-03T19:51:44.135Z,11.44
2018-12-03T19:56:47.435Z,11.37
2018-12-03T20:01:50.759Z,11.34
2018-12-03T20:06:54.047Z,11.41
2018-12-03T20:11:57.411Z,11.37
2018-12-03T20:17:00.833Z,11.38
2018-12-03T20:22:06.842Z,11.36
2018-12-03T20:27:33.534Z,11.20
2018-12-03T20:32:51.343Z,11.17
2018-12-03T20:38:05.330Z,10.94
2018-12-03T20:43:15.811Z,10.74
2018-12-03T20:48:26.307Z,10.69
2018-12-03T20:53:37.192Z,10.77
2018-12-03T20:58:40.475Z,10.87
2018-12-03T21:03:43.777Z,10.87
2018-12-03T21:08:47.096Z,10.95
2018-12-03T21:13:50.395Z,10.99
2018-12-03T21:18:53.704Z,10.93
2018-12-03T21:23:57.032Z,10.89
2018-12-03T21:29:00.373Z,10.96
2018-12-03T21:34:03.779Z,10.80
2018-12-03T21:39:08.080Z,10.85
2018-12-03T21:44:11.336Z,10.91
2018-12-03T21:49:14.610Z,10.81
2018-12-03T21:54:17.904Z,10.73
2018-12-03T21:59:21.125Z,10.78
2018-12-03T22:04:24.385Z,10.87
2018-12-03T22:09:27.616Z,10.75
2018-12-03T22:14:30.862Z,10.64
2018-12-03T22:19:34.110Z,10.59
2018-12-03T22:24:37.277Z,10.63
2018-12-03T22:29:40.504Z,10.65
2018-12-03T22:34:43.741Z,10.68
2018-12-03T22:39:46.978Z,10.65
2018-12-03T22:44:50.212Z,10.56
2018-12-03T22:49:53.437Z,10.58
2018-12-03T22:54:56.684Z,10.56
2018-12-03T22:59:59.881Z,10.54
2018-12-03T23:05:03.178Z,10.53
2018-12-03T23:10:06.484Z,10.46
2018-12-03T23:15:09.735Z,10.64
2018-12-03T23:20:12.983Z,10.69
2018-12-03T23:25:16.196Z,10.46
2018-12-03T23:30:19.391Z,10.36
2018-12-03T23:35:22.564Z,10.28
2018-12-03T23:40:25.724Z,10.28
2018-12-03T23:45:28.901Z,10.48
2018-12-03T23:50:32.081Z,10.36
2018-12-03T23:55:35.323Z,10.37
